sensor_id;sensor_type;location;lat;lon;timestamp;temperature;humidity
20171;DHT22;10245;51.344;6.620;2024-02-21T00:01:46;9.40;83.50
20171;DHT22;10245;51.344;6.620;2024-02-21T00:04:10;9.50;83.80
20171;DHT22;10245;51.344;6.620;2024-02-21T00:06:34;9.40;83.40
20171;DHT22;10245;51.344;6.620;2024-02-21T00:08:57;9.40;83.50
20171;DHT22;10245;51.344;6.620;2024-02-21T00:11:20;9.40;83.60
20171;DHT22;10245;51.344;6.620;2024-02-21T00:13:44;9.30;83.50
20171;DHT22;10245;51.344;6.620;2024-02-21T00:16:07;9.30;83.40
20171;DHT22;10245;51.344;6.620;2024-02-21T00:18:32;9.40;83.70
20171;DHT22;10245;51.344;6.620;2024-02-21T00:20:57;9.40;83.60
20171;DHT22;10245;51.344;6.620;2024-02-21T00:23:20;9.40;83.60
20171;DHT22;10245;51.344;6.620;2024-02-21T00:25:44;9.50;83.70
20171;DHT22;10245;51.344;6.620;2024-02-21T00:28:07;9.40;83.60
20171;DHT22;10245;51.344;6.620;2024-02-21T00:30:31;9.50;83.50
20171;DHT22;10245;51.344;6.620;2024-02-21T00:32:55;9.50;83.50
20171;DHT22;10245;51.344;6.620;2024-02-21T00:35:18;9.50;83.60
20171;DHT22;10245;51.344;6.620;2024-02-21T00:37:43;9.40;83.70
20171;DHT22;10245;51.344;6.620;2024-02-21T00:40:08;9.50;83.60
20171;DHT22;10245;51.344;6.620;2024-02-21T00:42:31;9.50;83.50
20171;DHT22;10245;51.344;6.620;2024-02-21T00:44:55;9.50;83.60
20171;DHT22;10245;51.344;6.620;2024-02-21T00:47:18;9.50;83.40
20171;DHT22;10245;51.344;6.620;2024-02-21T00:49:42;9.50;83.40
20171;DHT22;10245;51.344;6.620;2024-02-21T00:52:05;9.50;83.60
20171;DHT22;10245;51.344;6.620;2024-02-21T00:54:30;9.50;83.40
20171;DHT22;10245;51.344;6.620;2024-02-21T00:57:08;9.50;83.50
20171;DHT22;10245;51.344;6.620;2024-02-21T00:59:32;9.50;83.40
20171;DHT22;10245;51.344;6.620;2024-02-21T01:01:55;9.50;83.70
20171;DHT22;10245;51.344;6.620;2024-02-21T01:04:19;9.50;83.50
20171;DHT22;10245;51.344;6.620;2024-02-21T01:06:42;9.50;83.40
20171;DHT22;10245;51.344;6.620;2024-02-21T01:09:05;9.50;83.60
20171;DHT22;10245;51.344;6.620;2024-02-21T01:11:30;9.50;83.80
20171;DHT22;10245;51.344;6.620;2024-02-21T01:13:55;9.50;83.50
20171;DHT22;10245;51.344;6.620;2024-02-21T01:16:19;9.50;83.60
20171;DHT22;10245;51.344;6.620;2024-02-21T01:18:42;9.60;83.70
20171;DHT22;10245;51.344;6.620;2024-02-21T01:21:06;9.50;83.70
20171;DHT22;10245;51.344;6.620;2024-02-21T01:23:30;9.50;83.70
20171;DHT22;10245;51.344;6.620;2024-02-21T01:25:53;9.50;83.50
20171;DHT22;10245;51.344;6.620;2024-02-21T01:28:18;9.50;83.60
20171;DHT22;10245;51.344;6.620;2024-02-21T01:30:44;9.50;83.80
20171;DHT22;10245;51.344;6.620;2024-02-21T01:33:07;9.60;83.20
20171;DHT22;10245;51.344;6.620;2024-02-21T01:35:31;9.50;83.30
20171;DHT22;10245;51.344;6.620;2024-02-21T01:37:54;9.50;83.70
20171;DHT22;10245;51.344;6.620;2024-02-21T01:40:18;9.50;83.20
20171;DHT22;10245;51.344;6.620;2024-02-21T01:42:41;9.50;83.70
20171;DHT22;10245;51.344;6.620;2024-02-21T01:45:06;9.50;83.30
20171;DHT22;10245;51.344;6.620;2024-02-21T01:47:30;9.40;83.60
20171;DHT22;10245;51.344;6.620;2024-02-21T01:49:53;9.50;83.70
20171;DHT22;10245;51.344;6.620;2024-02-21T01:52:17;9.50;83.40
20171;DHT22;10245;51.344;6.620;2024-02-21T01:54:40;9.60;83.70
20171;DHT22;10245;51.344;6.620;2024-02-21T01:57:04;9.50;83.40
20171;DHT22;10245;51.344;6.620;2024-02-21T01:59:28;9.50;83.30
20171;DHT22;10245;51.344;6.620;2024-02-21T02:01:54;9.60;83.60
20171;DHT22;10245;51.344;6.620;2024-02-21T02:04:20;9.50;83.40
20171;DHT22;10245;51.344;6.620;2024-02-21T02:06:43;9.60;83.30
20171;DHT22;10245;51.344;6.620;2024-02-21T02:09:07;9.50;83.40
20171;DHT22;10245;51.344;6.620;2024-02-21T02:11:32;9.50;83.50
20171;DHT22;10245;51.344;6.620;2024-02-21T02:13:55;9.50;83.40
20171;DHT22;10245;51.344;6.620;2024-02-21T02:16:22;9.50;83.40
20171;DHT22;10245;51.344;6.620;2024-02-21T02:18:47;9.50;83.80
20171;DHT22;10245;51.344;6.620;2024-02-21T02:21:13;9.60;83.40
20171;DHT22;10245;51.344;6.620;2024-02-21T02:23:41;9.60;83.50
20171;DHT22;10245;51.344;6.620;2024-02-21T02:26:05;9.50;83.20
20171;DHT22;10245;51.344;6.620;2024-02-21T02:28:29;9.50;83.90
20171;DHT22;10245;51.344;6.620;2024-02-21T02:30:52;9.60;84.00
20171;DHT22;10245;51.344;6.620;2024-02-21T02:33:16;9.50;83.50
20171;DHT22;10245;51.344;6.620;2024-02-21T02:35:40;9.50;83.60
20171;DHT22;10245;51.344;6.620;2024-02-21T02:38:04;9.50;84.10
20171;DHT22;10245;51.344;6.620;2024-02-21T02:40:29;9.50;84.30
20171;DHT22;10245;51.344;6.620;2024-02-21T02:42:53;9.40;83.80
20171;DHT22;10245;51.344;6.620;2024-02-21T02:45:18;9.30;84.50
20171;DHT22;10245;51.344;6.620;2024-02-21T02:47:41;9.30;84.70
20171;DHT22;10245;51.344;6.620;2024-02-21T02:50:06;9.20;84.80
20171;DHT22;10245;51.344;6.620;2024-02-21T02:52:29;9.30;85.20
20171;DHT22;10245;51.344;6.620;2024-02-21T02:54:53;9.20;85.00
20171;DHT22;10245;51.344;6.620;2024-02-21T02:57:19;9.10;84.90
20171;DHT22;10245;51.344;6.620;2024-02-21T02:59:42;9.10;85.30
20171;DHT22;10245;51.344;6.620;2024-02-21T03:02:05;9.10;85.10
20171;DHT22;10245;51.344;6.620;2024-02-21T03:04:29;9.20;84.40
20171;DHT22;10245;51.344;6.620;2024-02-21T03:06:53;9.20;84.70
20171;DHT22;10245;51.344;6.620;2024-02-21T03:09:16;9.10;84.70
20171;DHT22;10245;51.344;6.620;2024-02-21T03:11:39;9.10;85.00
20171;DHT22;10245;51.344;6.620;2024-02-21T03:14:06;9.00;85.10
20171;DHT22;10245;51.344;6.620;2024-02-21T03:16:29;8.90;85.30
20171;DHT22;10245;51.344;6.620;2024-02-21T03:18:52;9.00;85.30
20171;DHT22;10245;51.344;6.620;2024-02-21T03:21:16;9.00;85.40
20171;DHT22;10245;51.344;6.620;2024-02-21T03:23:39;9.10;84.70
20171;DHT22;10245;51.344;6.620;2024-02-21T03:26:03;8.90;85.20
20171;DHT22;10245;51.344;6.620;2024-02-21T03:28:27;8.90;85.30
20171;DHT22;10245;51.344;6.620;2024-02-21T03:30:52;9.00;85.20
20171;DHT22;10245;51.344;6.620;2024-02-21T03:33:15;9.00;85.40
20171;DHT22;10245;51.344;6.620;2024-02-21T03:35:39;9.00;85.20
20171;DHT22;10245;51.344;6.620;2024-02-21T03:38:03;9.00;85.10
20171;DHT22;10245;51.344;6.620;2024-02-21T03:40:26;8.90;85.30
20171;DHT22;10245;51.344;6.620;2024-02-21T03:42:49;9.00;85.50
20171;DHT22;10245;51.344;6.620;2024-02-21T03:45:13;9.00;85.50
20171;DHT22;10245;51.344;6.620;2024-02-21T03:47:37;9.00;85.20
20171;DHT22;10245;51.344;6.620;2024-02-21T03:50:01;9.00;85.20
20171;DHT22;10245;51.344;6.620;2024-02-21T03:52:24;8.90;85.30
20171;DHT22;10245;51.344;6.620;2024-02-21T03:54:48;9.00;85.00
20171;DHT22;10245;51.344;6.620;2024-02-21T03:57:11;9.00;85.00
20171;DHT22;10245;51.344;6.620;2024-02-21T03:59:34;9.00;85.10
20171;DHT22;10245;51.344;6.620;2024-02-21T04:01:57;9.00;85.00
20171;DHT22;10245;51.344;6.620;2024-02-21T04:04:22;9.00;85.10
20171;DHT22;10245;51.344;6.620;2024-02-21T04:06:49;9.10;85.40
20171;DHT22;10245;51.344;6.620;2024-02-21T04:09:13;9.10;84.70
20171;DHT22;10245;51.344;6.620;2024-02-21T04:11:36;9.10;85.00
20171;DHT22;10245;51.344;6.620;2024-02-21T04:13:59;9.20;85.00
20171;DHT22;10245;51.344;6.620;2024-02-21T04:16:23;9.10;84.80
20171;DHT22;10245;51.344;6.620;2024-02-21T04:18:46;9.00;84.80
20171;DHT22;10245;51.344;6.620;2024-02-21T04:21:14;9.10;85.10
20171;DHT22;10245;51.344;6.620;2024-02-21T04:23:38;9.10;85.10
20171;DHT22;10245;51.344;6.620;2024-02-21T04:26:01;9.00;84.40
20171;DHT22;10245;51.344;6.620;2024-02-21T04:28:25;9.00;84.70
20171;DHT22;10245;51.344;6.620;2024-02-21T04:30:48;9.00;84.70
20171;DHT22;10245;51.344;6.620;2024-02-21T04:33:11;9.10;84.80
20171;DHT22;10245;51.344;6.620;2024-02-21T04:35:36;9.10;84.20
20171;DHT22;10245;51.344;6.620;2024-02-21T04:38:01;9.10;84.60
20171;DHT22;10245;51.344;6.620;2024-02-21T04:40:25;9.10;84.30
20171;DHT22;10245;51.344;6.620;2024-02-21T04:42:49;9.00;84.40
20171;DHT22;10245;51.344;6.620;2024-02-21T04:45:12;9.00;84.70
20171;DHT22;10245;51.344;6.620;2024-02-21T04:47:35;9.00;84.40
20171;DHT22;10245;51.344;6.620;2024-02-21T04:49:59;9.10;84.70
20171;DHT22;10245;51.344;6.620;2024-02-21T04:52:22;9.10;84.40
20171;DHT22;10245;51.344;6.620;2024-02-21T04:54:47;9.10;84.30
20171;DHT22;10245;51.344;6.620;2024-02-21T04:57:10;9.00;84.60
20171;DHT22;10245;51.344;6.620;2024-02-21T04:59:38;9.00;84.80
20171;DHT22;10245;51.344;6.620;2024-02-21T05:02:02;9.10;84.80
20171;DHT22;10245;51.344;6.620;2024-02-21T05:04:25;9.10;84.60
20171;DHT22;10245;51.344;6.620;2024-02-21T05:06:50;9.00;84.30
20171;DHT22;10245;51.344;6.620;2024-02-21T05:09:14;9.10;85.00
20171;DHT22;10245;51.344;6.620;2024-02-21T05:11:38;9.10;84.80
20171;DHT22;10245;51.344;6.620;2024-02-21T05:14:02;9.20;84.50
20171;DHT22;10245;51.344;6.620;2024-02-21T05:16:26;9.20;84.50
20171;DHT22;10245;51.344;6.620;2024-02-21T05:18:49;9.10;84.10
20171;DHT22;10245;51.344;6.620;2024-02-21T05:21:13;9.00;84.30
20171;DHT22;10245;51.344;6.620;2024-02-21T05:23:36;9.00;84.80
20171;DHT22;10245;51.344;6.620;2024-02-21T05:26:01;9.10;85.00
20171;DHT22;10245;51.344;6.620;2024-02-21T05:28:26;9.10;84.50
20171;DHT22;10245;51.344;6.620;2024-02-21T05:30:49;9.10;84.30
20171;DHT22;10245;51.344;6.620;2024-02-21T05:33:13;9.10;84.40
20171;DHT22;10245;51.344;6.620;2024-02-21T05:35:43;9.00;84.60
20171;DHT22;10245;51.344;6.620;2024-02-21T05:38:06;9.10;84.10
20171;DHT22;10245;51.344;6.620;2024-02-21T05:40:33;9.10;84.40
20171;DHT22;10245;51.344;6.620;2024-02-21T05:42:57;9.00;84.30
20171;DHT22;10245;51.344;6.620;2024-02-21T05:45:21;9.00;84.90
20171;DHT22;10245;51.344;6.620;2024-02-21T05:47:45;9.10;84.40
20171;DHT22;10245;51.344;6.620;2024-02-21T05:50:09;9.10;84.50
20171;DHT22;10245;51.344;6.620;2024-02-21T05:52:33;9.20;84.00
20171;DHT22;10245;51.344;6.620;2024-02-21T05:54:56;9.30;84.10
20171;DHT22;10245;51.344;6.620;2024-02-21T05:57:20;9.20;83.50
20171;DHT22;10245;51.344;6.620;2024-02-21T05:59:43;9.10;83.90
20171;DHT22;10245;51.344;6.620;2024-02-21T06:02:08;9.00;84.60
20171;DHT22;10245;51.344;6.620;2024-02-21T06:04:31;9.10;84.30
20171;DHT22;10245;51.344;6.620;2024-02-21T06:06:54;9.20;84.20
20171;DHT22;10245;51.344;6.620;2024-02-21T06:09:17;9.20;83.90
20171;DHT22;10245;51.344;6.620;2024-02-21T06:11:40;9.10;84.20
20171;DHT22;10245;51.344;6.620;2024-02-21T06:14:07;9.10;84.70
20171;DHT22;10245;51.344;6.620;2024-02-21T06:16:30;9.00;84.30
20171;DHT22;10245;51.344;6.620;2024-02-21T06:18:55;9.10;84.20
20171;DHT22;10245;51.344;6.620;2024-02-21T06:21:19;9.00;83.80
20171;DHT22;10245;51.344;6.620;2024-02-21T06:23:42;9.00;84.40
20171;DHT22;10245;51.344;6.620;2024-02-21T06:26:05;9.10;84.60
20171;DHT22;10245;51.344;6.620;2024-02-21T06:28:28;9.00;84.00
20171;DHT22;10245;51.344;6.620;2024-02-21T06:30:52;8.90;84.40
20171;DHT22;10245;51.344;6.620;2024-02-21T06:33:15;9.00;84.60
20171;DHT22;10245;51.344;6.620;2024-02-21T06:35:40;9.00;84.70
20171;DHT22;10245;51.344;6.620;2024-02-21T06:38:05;9.00;84.20
20171;DHT22;10245;51.344;6.620;2024-02-21T06:40:29;9.00;84.70
20171;DHT22;10245;51.344;6.620;2024-02-21T06:43:00;9.00;84.30
20171;DHT22;10245;51.344;6.620;2024-02-21T06:45:24;9.00;84.70
20171;DHT22;10245;51.344;6.620;2024-02-21T06:47:47;9.00;84.20
20171;DHT22;10245;51.344;6.620;2024-02-21T06:50:10;8.90;84.60
20171;DHT22;10245;51.344;6.620;2024-02-21T06:52:36;9.00;84.60
20171;DHT22;10245;51.344;6.620;2024-02-21T06:54:59;9.00;84.00
20171;DHT22;10245;51.344;6.620;2024-02-21T06:57:23;9.00;84.40
20171;DHT22;10245;51.344;6.620;2024-02-21T06:59:47;8.90;84.00
20171;DHT22;10245;51.344;6.620;2024-02-21T07:02:11;9.00;84.30
20171;DHT22;10245;51.344;6.620;2024-02-21T07:04:35;9.00;83.80
20171;DHT22;10245;51.344;6.620;2024-02-21T07:06:58;9.10;84.40
20171;DHT22;10245;51.344;6.620;2024-02-21T07:09:23;9.00;83.90
20171;DHT22;10245;51.344;6.620;2024-02-21T07:11:47;9.00;84.00
20171;DHT22;10245;51.344;6.620;2024-02-21T07:14:13;9.10;83.80
20171;DHT22;10245;51.344;6.620;2024-02-21T07:16:37;9.00;84.10
20171;DHT22;10245;51.344;6.620;2024-02-21T07:19:00;9.00;83.90
20171;DHT22;10245;51.344;6.620;2024-02-21T07:21:25;9.00;83.40
20171;DHT22;10245;51.344;6.620;2024-02-21T07:23:48;9.00;83.70
20171;DHT22;10245;51.344;6.620;2024-02-21T07:26:13;9.00;83.70
20171;DHT22;10245;51.344;6.620;2024-02-21T07:28:36;9.00;83.90
20171;DHT22;10245;51.344;6.620;2024-02-21T07:30:59;9.00;83.70
20171;DHT22;10245;51.344;6.620;2024-02-21T07:33:23;9.10;84.10
20171;DHT22;10245;51.344;6.620;2024-02-21T07:35:46;9.10;83.70
20171;DHT22;10245;51.344;6.620;2024-02-21T07:38:09;9.10;83.30
20171;DHT22;10245;51.344;6.620;2024-02-21T07:40:35;9.00;83.10
20171;DHT22;10245;51.344;6.620;2024-02-21T07:42:59;9.00;83.30
20171;DHT22;10245;51.344;6.620;2024-02-21T07:45:23;9.00;83.30
20171;DHT22;10245;51.344;6.620;2024-02-21T07:47:46;9.00;83.00
20171;DHT22;10245;51.344;6.620;2024-02-21T07:50:10;9.10;83.00
20171;DHT22;10245;51.344;6.620;2024-02-21T07:52:33;9.10;83.20
20171;DHT22;10245;51.344;6.620;2024-02-21T07:54:56;9.10;83.00
20171;DHT22;10245;51.344;6.620;2024-02-21T07:57:19;9.10;82.90
20171;DHT22;10245;51.344;6.620;2024-02-21T07:59:45;9.10;83.00
20171;DHT22;10245;51.344;6.620;2024-02-21T08:02:09;9.10;82.90
20171;DHT22;10245;51.344;6.620;2024-02-21T08:04:33;9.10;82.50
20171;DHT22;10245;51.344;6.620;2024-02-21T08:06:57;9.20;82.80
20171;DHT22;10245;51.344;6.620;2024-02-21T08:09:23;9.20;82.90
20171;DHT22;10245;51.344;6.620;2024-02-21T08:11:46;9.00;83.50
20171;DHT22;10245;51.344;6.620;2024-02-21T08:14:09;9.00;84.00
20171;DHT22;10245;51.344;6.620;2024-02-21T08:16:35;9.00;84.30
20171;DHT22;10245;51.344;6.620;2024-02-21T08:18:59;8.90;84.80
20171;DHT22;10245;51.344;6.620;2024-02-21T08:21:24;9.00;85.10
20171;DHT22;10245;51.344;6.620;2024-02-21T08:23:47;9.00;85.00
20171;DHT22;10245;51.344;6.620;2024-02-21T08:26:13;9.00;85.50
20171;DHT22;10245;51.344;6.620;2024-02-21T08:28:36;9.00;85.10
20171;DHT22;10245;51.344;6.620;2024-02-21T08:30:59;8.90;85.30
20171;DHT22;10245;51.344;6.620;2024-02-21T08:33:24;8.90;84.40
20171;DHT22;10245;51.344;6.620;2024-02-21T08:35:48;8.90;83.90
20171;DHT22;10245;51.344;6.620;2024-02-21T08:38:11;8.90;83.50
20171;DHT22;10245;51.344;6.620;2024-02-21T08:40:35;9.00;82.90
20171;DHT22;10245;51.344;6.620;2024-02-21T08:42:58;8.90;82.20
20171;DHT22;10245;51.344;6.620;2024-02-21T08:45:22;8.90;82.00
20171;DHT22;10245;51.344;6.620;2024-02-21T08:47:45;8.90;82.00
20171;DHT22;10245;51.344;6.620;2024-02-21T08:50:10;9.00;81.60
20171;DHT22;10245;51.344;6.620;2024-02-21T08:52:48;9.00;81.60
20171;DHT22;10245;51.344;6.620;2024-02-21T08:55:12;9.10;80.70
20171;DHT22;10245;51.344;6.620;2024-02-21T08:57:36;9.00;80.80
20171;DHT22;10245;51.344;6.620;2024-02-21T08:59:59;9.00;80.70
20171;DHT22;10245;51.344;6.620;2024-02-21T09:02:23;9.00;80.70
20171;DHT22;10245;51.344;6.620;2024-02-21T09:04:46;9.00;80.70
20171;DHT22;10245;51.344;6.620;2024-02-21T09:07:11;9.20;81.30
20171;DHT22;10245;51.344;6.620;2024-02-21T09:09:36;9.10;80.30
20171;DHT22;10245;51.344;6.620;2024-02-21T09:12:01;9.20;80.10
20171;DHT22;10245;51.344;6.620;2024-02-21T09:14:28;9.20;80.30
20171;DHT22;10245;51.344;6.620;2024-02-21T09:16:51;9.10;80.20
20171;DHT22;10245;51.344;6.620;2024-02-21T09:19:15;9.10;80.60
20171;DHT22;10245;51.344;6.620;2024-02-21T09:21:40;9.10;80.30
20171;DHT22;10245;51.344;6.620;2024-02-21T09:24:06;9.10;79.90
20171;DHT22;10245;51.344;6.620;2024-02-21T09:26:29;9.20;79.90
20171;DHT22;10245;51.344;6.620;2024-02-21T09:28:52;9.10;79.90
20171;DHT22;10245;51.344;6.620;2024-02-21T09:31:16;9.20;80.40
20171;DHT22;10245;51.344;6.620;2024-02-21T09:33:40;9.10;80.10
20171;DHT22;10245;51.344;6.620;2024-02-21T09:36:05;9.10;79.90
20171;DHT22;10245;51.344;6.620;2024-02-21T09:38:29;9.20;79.90
20171;DHT22;10245;51.344;6.620;2024-02-21T09:40:59;9.30;79.60
20171;DHT22;10245;51.344;6.620;2024-02-21T09:43:24;9.40;78.70
20171;DHT22;10245;51.344;6.620;2024-02-21T09:45:48;9.40;79.10
20171;DHT22;10245;51.344;6.620;2024-02-21T09:48:27;9.20;78.60
20171;DHT22;10245;51.344;6.620;2024-02-21T09:50:57;9.30;78.70
20171;DHT22;10245;51.344;6.620;2024-02-21T09:53:24;9.30;78.50
20171;DHT22;10245;51.344;6.620;2024-02-21T09:55:48;9.50;78.30
20171;DHT22;10245;51.344;6.620;2024-02-21T09:58:14;9.50;78.00
20171;DHT22;10245;51.344;6.620;2024-02-21T10:00:38;9.50;78.10
20171;DHT22;10245;51.344;6.620;2024-02-21T10:03:02;9.50;78.10
20171;DHT22;10245;51.344;6.620;2024-02-21T10:05:29;9.50;78.60
20171;DHT22;10245;51.344;6.620;2024-02-21T10:07:52;9.50;77.70
20171;DHT22;10245;51.344;6.620;2024-02-21T10:10:16;9.70;77.70
20171;DHT22;10245;51.344;6.620;2024-02-21T10:12:50;9.50;77.30
20171;DHT22;10245;51.344;6.620;2024-02-21T10:15:19;9.50;77.30
20171;DHT22;10245;51.344;6.620;2024-02-21T10:17:44;9.60;77.90
20171;DHT22;10245;51.344;6.620;2024-02-21T10:20:08;9.80;78.50
20171;DHT22;10245;51.344;6.620;2024-02-21T10:22:32;9.70;78.00
20171;DHT22;10245;51.344;6.620;2024-02-21T10:25:07;9.80;78.30
20171;DHT22;10245;51.344;6.620;2024-02-21T10:27:30;9.60;77.30
20171;DHT22;10245;51.344;6.620;2024-02-21T10:29:54;9.80;78.00
20171;DHT22;10245;51.344;6.620;2024-02-21T10:32:19;9.90;77.40
20171;DHT22;10245;51.344;6.620;2024-02-21T10:34:45;9.80;77.50
20171;DHT22;10245;51.344;6.620;2024-02-21T10:37:14;9.70;77.50
20171;DHT22;10245;51.344;6.620;2024-02-21T10:39:39;9.90;77.50
20171;DHT22;10245;51.344;6.620;2024-02-21T10:42:04;10.00;77.90
20171;DHT22;10245;51.344;6.620;2024-02-21T10:44:29;10.00;77.20
20171;DHT22;10245;51.344;6.620;2024-02-21T10:46:53;10.00;76.30
20171;DHT22;10245;51.344;6.620;2024-02-21T10:49:23;10.00;76.70
20171;DHT22;10245;51.344;6.620;2024-02-21T10:51:49;10.00;77.40
20171;DHT22;10245;51.344;6.620;2024-02-21T10:54:39;10.00;77.10
20171;DHT22;10245;51.344;6.620;2024-02-21T10:57:09;10.00;76.30
20171;DHT22;10245;51.344;6.620;2024-02-21T10:59:34;10.20;76.60
20171;DHT22;10245;51.344;6.620;2024-02-21T11:02:00;10.10;76.70
20171;DHT22;10245;51.344;6.620;2024-02-21T11:04:26;10.20;76.40
20171;DHT22;10245;51.344;6.620;2024-02-21T11:06:53;10.20;76.20
20171;DHT22;10245;51.344;6.620;2024-02-21T11:09:17;10.30;77.00
20171;DHT22;10245;51.344;6.620;2024-02-21T11:11:41;10.30;76.80
20171;DHT22;10245;51.344;6.620;2024-02-21T11:14:07;10.40;76.80
20171;DHT22;10245;51.344;6.620;2024-02-21T11:16:36;10.30;75.50
20171;DHT22;10245;51.344;6.620;2024-02-21T11:19:05;10.50;76.00
20171;DHT22;10245;51.344;6.620;2024-02-21T11:21:34;10.50;75.50
20171;DHT22;10245;51.344;6.620;2024-02-21T11:23:58;10.40;74.70
20171;DHT22;10245;51.344;6.620;2024-02-21T11:26:23;10.40;75.50
20171;DHT22;10245;51.344;6.620;2024-02-21T11:28:59;10.50;74.30
20171;DHT22;10245;51.344;6.620;2024-02-21T11:31:23;10.50;75.00
20171;DHT22;10245;51.344;6.620;2024-02-21T11:33:47;10.50;75.10
20171;DHT22;10245;51.344;6.620;2024-02-21T11:36:10;10.60;75.10
20171;DHT22;10245;51.344;6.620;2024-02-21T11:38:36;10.60;74.20
20171;DHT22;10245;51.344;6.620;2024-02-21T11:40:59;10.70;75.40
20171;DHT22;10245;51.344;6.620;2024-02-21T11:43:22;10.60;74.60
20171;DHT22;10245;51.344;6.620;2024-02-21T11:45:46;10.60;74.30
20171;DHT22;10245;51.344;6.620;2024-02-21T11:48:09;10.70;74.70
20171;DHT22;10245;51.344;6.620;2024-02-21T11:50:34;10.70;73.70
20171;DHT22;10245;51.344;6.620;2024-02-21T11:52:58;10.60;73.90
20171;DHT22;10245;51.344;6.620;2024-02-21T11:55:23;10.80;74.00
20171;DHT22;10245;51.344;6.620;2024-02-21T11:57:48;10.80;74.80
20171;DHT22;10245;51.344;6.620;2024-02-21T12:00:15;10.80;74.30
20171;DHT22;10245;51.344;6.620;2024-02-21T12:02:39;10.80;74.60
20171;DHT22;10245;51.344;6.620;2024-02-21T12:05:04;10.80;73.30
20171;DHT22;10245;51.344;6.620;2024-02-21T12:07:28;10.70;73.10
20171;DHT22;10245;51.344;6.620;2024-02-21T12:09:51;10.70;73.00
20171;DHT22;10245;51.344;6.620;2024-02-21T12:12:20;11.00;73.60
20171;DHT22;10245;51.344;6.620;2024-02-21T12:14:44;10.80;71.70
20171;DHT22;10245;51.344;6.620;2024-02-21T12:17:07;10.70;72.60
20171;DHT22;10245;51.344;6.620;2024-02-21T12:19:32;10.90;73.30
20171;DHT22;10245;51.344;6.620;2024-02-21T12:21:56;10.80;71.70
20171;DHT22;10245;51.344;6.620;2024-02-21T12:24:22;11.00;72.30
20171;DHT22;10245;51.344;6.620;2024-02-21T12:26:45;11.20;72.70
20171;DHT22;10245;51.344;6.620;2024-02-21T12:29:10;11.40;71.60
20171;DHT22;10245;51.344;6.620;2024-02-21T12:31:33;11.50;70.70
20171;DHT22;10245;51.344;6.620;2024-02-21T12:33:57;11.40;69.70
20171;DHT22;10245;51.344;6.620;2024-02-21T12:36:21;11.20;70.30
20171;DHT22;10245;51.344;6.620;2024-02-21T12:38:45;11.20;69.50
20171;DHT22;10245;51.344;6.620;2024-02-21T12:41:14;11.30;71.90
20171;DHT22;10245;51.344;6.620;2024-02-21T12:43:37;11.50;71.20
20171;DHT22;10245;51.344;6.620;2024-02-21T12:46:02;11.40;69.90
20171;DHT22;10245;51.344;6.620;2024-02-21T12:48:27;11.50;70.00
20171;DHT22;10245;51.344;6.620;2024-02-21T12:50:50;11.30;69.80
20171;DHT22;10245;51.344;6.620;2024-02-21T12:53:14;11.50;71.30
20171;DHT22;10245;51.344;6.620;2024-02-21T12:55:47;11.60;71.00
20171;DHT22;10245;51.344;6.620;2024-02-21T12:58:11;11.60;69.80
20171;DHT22;10245;51.344;6.620;2024-02-21T13:00:35;11.80;71.30
20171;DHT22;10245;51.344;6.620;2024-02-21T13:03:00;11.80;70.00
20171;DHT22;10245;51.344;6.620;2024-02-21T13:05:24;12.00;69.70
20171;DHT22;10245;51.344;6.620;2024-02-21T13:07:49;12.00;68.20
20171;DHT22;10245;51.344;6.620;2024-02-21T13:10:13;12.10;69.40
20171;DHT22;10245;51.344;6.620;2024-02-21T13:12:37;12.20;69.60
20171;DHT22;10245;51.344;6.620;2024-02-21T13:15:00;12.10;68.80
20171;DHT22;10245;51.344;6.620;2024-02-21T13:17:23;12.00;68.80
20171;DHT22;10245;51.344;6.620;2024-02-21T13:19:53;11.90;69.90
20171;DHT22;10245;51.344;6.620;2024-02-21T13:22:16;11.90;68.70
20171;DHT22;10245;51.344;6.620;2024-02-21T13:24:42;11.80;69.30
20171;DHT22;10245;51.344;6.620;2024-02-21T13:27:05;12.00;70.10
20171;DHT22;10245;51.344;6.620;2024-02-21T13:29:28;12.00;69.50
20171;DHT22;10245;51.344;6.620;2024-02-21T13:31:52;12.00;71.30
20171;DHT22;10245;51.344;6.620;2024-02-21T13:34:15;11.80;69.30
20171;DHT22;10245;51.344;6.620;2024-02-21T13:36:40;11.80;70.30
20171;DHT22;10245;51.344;6.620;2024-02-21T13:39:03;11.70;69.60
20171;DHT22;10245;51.344;6.620;2024-02-21T13:41:28;11.80;71.50
20171;DHT22;10245;51.344;6.620;2024-02-21T13:43:52;11.80;69.80
20171;DHT22;10245;51.344;6.620;2024-02-21T13:46:15;11.90;70.20
20171;DHT22;10245;51.344;6.620;2024-02-21T13:48:38;11.70;70.40
20171;DHT22;10245;51.344;6.620;2024-02-21T13:51:02;11.60;69.80
20171;DHT22;10245;51.344;6.620;2024-02-21T13:53:27;11.70;70.20
20171;DHT22;10245;51.344;6.620;2024-02-21T13:55:51;11.70;70.20
20171;DHT22;10245;51.344;6.620;2024-02-21T13:58:15;11.70;71.20
20171;DHT22;10245;51.344;6.620;2024-02-21T14:00:39;11.90;70.40
20171;DHT22;10245;51.344;6.620;2024-02-21T14:03:03;11.80;71.40
20171;DHT22;10245;51.344;6.620;2024-02-21T14:05:27;12.00;70.40
20171;DHT22;10245;51.344;6.620;2024-02-21T14:07:50;12.00;71.40
20171;DHT22;10245;51.344;6.620;2024-02-21T14:10:18;12.00;70.00
20171;DHT22;10245;51.344;6.620;2024-02-21T14:12:42;12.00;70.30
20171;DHT22;10245;51.344;6.620;2024-02-21T14:15:06;12.10;69.90
20171;DHT22;10245;51.344;6.620;2024-02-21T14:17:30;12.30;70.50
20171;DHT22;10245;51.344;6.620;2024-02-21T14:19:54;12.10;70.20
20171;DHT22;10245;51.344;6.620;2024-02-21T14:22:17;12.20;69.80
20171;DHT22;10245;51.344;6.620;2024-02-21T14:24:41;12.10;69.10
20171;DHT22;10245;51.344;6.620;2024-02-21T14:27:06;12.10;69.10
20171;DHT22;10245;51.344;6.620;2024-02-21T14:29:30;12.10;68.30
20171;DHT22;10245;51.344;6.620;2024-02-21T14:31:59;12.10;69.00
20171;DHT22;10245;51.344;6.620;2024-02-21T14:34:22;12.00;68.60
20171;DHT22;10245;51.344;6.620;2024-02-21T14:36:45;12.00;68.60
20171;DHT22;10245;51.344;6.620;2024-02-21T14:39:09;12.00;69.00
20171;DHT22;10245;51.344;6.620;2024-02-21T14:41:33;12.10;68.90
20171;DHT22;10245;51.344;6.620;2024-02-21T14:43:58;12.20;69.30
20171;DHT22;10245;51.344;6.620;2024-02-21T14:46:26;12.10;68.70
20171;DHT22;10245;51.344;6.620;2024-02-21T14:48:50;12.10;68.80
20171;DHT22;10245;51.344;6.620;2024-02-21T14:51:14;12.00;69.60
20171;DHT22;10245;51.344;6.620;2024-02-21T14:53:38;12.00;70.00
20171;DHT22;10245;51.344;6.620;2024-02-21T14:56:01;12.10;69.50
20171;DHT22;10245;51.344;6.620;2024-02-21T14:58:25;12.00;69.70
20171;DHT22;10245;51.344;6.620;2024-02-21T15:00:50;12.20;70.60
20171;DHT22;10245;51.344;6.620;2024-02-21T15:03:16;12.30;71.00
20171;DHT22;10245;51.344;6.620;2024-02-21T15:05:41;12.00;70.10
20171;DHT22;10245;51.344;6.620;2024-02-21T15:08:05;12.00;69.60
20171;DHT22;10245;51.344;6.620;2024-02-21T15:10:29;12.00;70.80
20171;DHT22;10245;51.344;6.620;2024-02-21T15:12:52;11.80;69.30
20171;DHT22;10245;51.344;6.620;2024-02-21T15:15:16;11.80;69.40
20171;DHT22;10245;51.344;6.620;2024-02-21T15:17:41;11.80;69.40
20171;DHT22;10245;51.344;6.620;2024-02-21T15:20:06;11.80;69.20
20171;DHT22;10245;51.344;6.620;2024-02-21T15:22:31;11.80;69.10
20171;DHT22;10245;51.344;6.620;2024-02-21T15:24:54;11.80;68.90